Time;durP1;ratioP1;P1;durP2;ratioP2;P2;SDS_P1;SDS_P2;PMS_P1;PMS_P2;Temp;Humidity;BMP_temperature;BMP_pressure;BME280_temperature;BME280_humidity;BME280_pressure;Samples;Min_cycle;Max_cycle;Signal;HPM_P1;HPM_P2
2022/01/07 00:02:25;;;;;;;;;16.75;13.50;;;;;-142.59;100.00;56100.38;4913110;28;49690;-66
2022/01/07 00:04:50;;;;;;;;;15.25;12.25;;;;;-142.59;100.00;56100.38;4913053;28;49880;-68
2022/01/07 00:07:16;;;;;;;;;16.50;10.50;;;;;-142.59;100.00;56100.38;4920953;28;50526;-66
2022/01/07 00:09:41;;;;;;;;;10.25;10.25;;;;;-142.59;100.00;56100.38;4912931;28;49684;-66
2022/01/07 00:12:07;;;;;;;;;13.50;13.50;;;;;-142.59;100.00;56100.38;4896118;28;49819;-66
2022/01/07 00:14:35;;;;;;;;;13.75;13.75;;;;;-142.59;100.00;56100.38;4919534;28;49579;-66
2022/01/07 00:17:01;;;;;;;;;9.25;9.25;;;;;-142.59;100.00;56100.38;4917169;28;51105;-68
2022/01/07 00:19:26;;;;;;;;;14.00;11.75;;;;;-142.59;100.00;56100.38;4918747;28;49800;-70
2022/01/07 00:21:55;;;;;;;;;12.75;12.50;;;;;-142.59;100.00;56100.38;4918045;28;49690;-67
2022/01/07 00:24:21;;;;;;;;;11.00;11.00;;;;;-142.59;100.00;56100.38;4912756;28;49599;-65
2022/01/07 00:26:46;;;;;;;;;14.25;12.00;;;;;-142.59;100.00;56100.38;4919587;28;49572;-66
2022/01/07 00:29:11;;;;;;;;;10.00;10.00;;;;;-142.59;100.00;56100.38;4919488;28;49900;-66
2022/01/07 00:31:37;;;;;;;;;11.00;10.00;;;;;-142.59;100.00;56100.38;4901749;28;50216;-67
2022/01/07 00:34:02;;;;;;;;;5.00;2.75;;;;;-142.59;100.00;56100.38;4921384;28;49931;-71
2022/01/07 00:36:28;;;;;;;;;15.50;14.50;;;;;-142.59;100.00;56100.38;4921616;28;50082;-72
2022/01/07 00:38:53;;;;;;;;;15.00;13.75;;;;;-142.59;100.00;56100.38;4921279;28;49943;-68
2022/01/07 00:41:19;;;;;;;;;9.00;9.00;;;;;-142.59;100.00;56100.38;4924044;28;49812;-71
2022/01/07 00:43:48;;;;;;;;;12.25;12.25;;;;;-142.59;100.00;56100.38;4920050;28;49952;-69
2022/01/07 00:46:19;;;;;;;;;11.00;10.50;;;;;-142.59;100.00;56100.38;4921408;28;50083;-71
2022/01/07 00:48:44;;;;;;;;;13.00;9.25;;;;;-142.59;100.00;56100.38;4919102;28;49948;-72
2022/01/07 00:51:10;;;;;;;;;9.50;9.50;;;;;-142.59;100.00;56100.38;4920620;28;49815;-72
2022/01/07 00:53:36;;;;;;;;;10.75;10.75;;;;;-142.59;100.00;56100.38;4901693;28;50092;-71
2022/01/07 00:56:01;;;;;;;;;9.00;9.00;;;;;-142.59;100.00;56100.38;4917593;28;52306;-71
2022/01/07 00:58:36;;;;;;;;;12.00;9.25;;;;;-142.59;100.00;56100.38;4911334;28;49679;-68
2022/01/07 01:01:02;;;;;;;;;13.00;10.00;;;;;-142.59;100.00;56100.38;4898845;28;49772;-68
2022/01/07 01:03:30;;;;;;;;;8.25;7.50;;;;;-142.59;100.00;56100.38;4903787;28;50161;-69
2022/01/07 01:05:58;;;;;;;;;12.75;11.50;;;;;-142.59;100.00;56100.38;4914282;28;49854;-66
2022/01/07 01:08:25;;;;;;;;;10.25;10.25;;;;;-142.59;100.00;56100.38;4916716;28;49829;-67
2022/01/07 01:10:52;;;;;;;;;11.50;9.25;;;;;-142.59;100.00;56100.38;4933760;28;49388;-72
2022/01/07 01:13:17;;;;;;;;;17.00;14.25;;;;;-142.59;100.00;56100.38;4927859;28;49263;-67
2022/01/07 01:15:43;;;;;;;;;9.25;9.25;;;;;-142.59;100.00;56100.38;4909163;28;49908;-67
2022/01/07 01:18:08;;;;;;;;;15.00;11.50;;;;;-142.59;100.00;56100.38;4915781;28;49777;-68
2022/01/07 01:20:33;;;;;;;;;14.50;13.00;;;;;-142.59;100.00;56100.38;4915753;28;49797;-67
2022/01/07 01:23:02;;;;;;;;;15.25;14.25;;;;;-142.59;100.00;56100.38;4923405;28;49910;-69
2022/01/07 01:25:28;;;;;;;;;10.00;9.50;;;;;-142.59;100.00;56100.38;4919748;28;49948;-66
2022/01/07 01:27:54;;;;;;;;;15.00;15.00;;;;;-142.59;100.00;56100.38;4913944;28;49975;-66
2022/01/07 01:30:19;;;;;;;;;9.25;9.25;;;;;-142.59;100.00;56100.38;4921718;28;49990;-66
2022/01/07 01:32:48;;;;;;;;;10.00;10.00;;;;;-142.59;100.00;56100.38;4921114;28;49875;-67
2022/01/07 01:35:15;;;;;;;;;14.00;11.75;;;;;-142.59;100.00;56100.38;4915053;28;50735;-65
2022/01/07 01:37:41;;;;;;;;;9.75;9.25;;;;;-142.59;100.00;56100.38;4922405;28;49828;-68
2022/01/07 01:40:08;;;;;;;;;11.75;9.75;;;;;-142.59;100.00;56100.38;4918233;28;49798;-69
2022/01/07 01:42:33;;;;;;;;;9.25;9.25;;;;;-142.59;100.00;56100.38;4918232;28;49867;-65
2022/01/07 01:44:59;;;;;;;;;14.00;10.50;;;;;-142.59;100.00;56100.38;4918391;28;49764;-66
2022/01/07 01:47:24;;;;;;;;;13.25;13.00;;;;;-142.59;100.00;56100.38;4918205;28;49787;-64
2022/01/07 01:49:50;;;;;;;;;13.00;11.75;;;;;-142.59;100.00;56100.38;4904550;28;49775;-66
2022/01/07 01:52:15;;;;;;;;;14.25;12.75;;;;;-142.59;100.00;56100.38;4919025;28;49782;-66
2022/01/07 01:54:43;;;;;;;;;12.75;11.00;;;;;-142.59;100.00;56100.38;4915998;28;49772;-68
2022/01/07 01:57:09;;;;;;;;;11.00;9.00;;;;;-142.59;100.00;56100.38;4913788;28;49931;-66
2022/01/07 01:59:35;;;;;;;;;17.00;14.50;;;;;-142.59;100.00;56100.38;4921108;28;49902;-66
2022/01/07 02:02:01;;;;;;;;;10.50;10.50;;;;;-142.59;100.00;56100.38;4915955;28;49899;-70
2022/01/07 02:04:26;;;;;;;;;11.75;11.25;;;;;-142.59;100.00;56100.38;4919939;28;50843;-66
2022/01/07 02:06:53;;;;;;;;;13.25;11.75;;;;;-142.59;100.00;56100.38;4914924;28;49695;-65
2022/01/07 02:09:23;;;;;;;;;10.50;10.50;;;;;-142.59;100.00;56100.38;4914585;28;49767;-65
2022/01/07 02:11:48;;;;;;;;;10.75;9.75;;;;;-142.59;100.00;56100.38;4919686;28;49696;-67
2022/01/07 02:14:14;;;;;;;;;12.50;10.75;;;;;-142.59;100.00;56100.38;4917789;28;49819;-67
2022/01/07 02:16:39;;;;;;;;;11.00;10.00;;;;;-142.59;100.00;56100.38;4918688;28;49844;-68
2022/01/07 02:19:05;;;;;;;;;10.25;10.25;;;;;-142.59;100.00;56100.38;4917812;28;49642;-65
2022/01/07 02:21:30;;;;;;;;;11.00;10.00;;;;;-142.59;100.00;56100.38;4921139;28;49829;-65
2022/01/07 02:23:55;;;;;;;;;14.50;13.50;;;;;-142.59;100.00;56100.38;4917373;28;50735;-65
2022/01/07 02:26:21;;;;;;;;;18.75;14.50;;;;;-142.59;100.00;56100.38;4917561;28;49827;-64
2022/01/07 02:28:49;;;;;;;;;10.25;10.00;;;;;-142.59;100.00;56100.38;4917330;28;49706;-65
2022/01/07 02:31:14;;;;;;;;;12.50;10.00;;;;;-142.59;100.00;56100.38;4924106;28;49390;-65
2022/01/07 02:33:40;;;;;;;;;11.75;11.25;;;;;-142.59;100.00;56100.38;4912375;28;50002;-66
2022/01/07 02:36:09;;;;;;;;;11.25;10.00;;;;;-142.59;100.00;56100.38;4916096;28;49781;-67
2022/01/07 02:38:36;;;;;;;;;11.00;9.00;;;;;-142.59;100.00;56100.38;4923194;28;49919;-65
2022/01/07 02:41:01;;;;;;;;;7.75;7.75;;;;;-142.59;100.00;56100.38;4923926;28;49621;-64
2022/01/07 02:43:27;;;;;;;;;11.00;10.25;;;;;-142.59;100.00;56100.38;4926250;28;50739;-65
2022/01/07 02:45:52;;;;;;;;;15.00;11.75;;;;;-142.59;100.00;56100.38;4916446;28;49818;-65
2022/01/07 02:48:18;;;;;;;;;10.75;9.75;;;;;-142.59;100.00;56100.38;4914123;28;49935;-67
2022/01/07 02:50:43;;;;;;;;;9.75;9.50;;;;;-142.59;100.00;56100.38;4926445;28;49680;-65
2022/01/07 02:53:10;;;;;;;;;11.50;8.50;;;;;-142.59;100.00;56100.38;4914030;28;50139;-64
2022/01/07 02:55:37;;;;;;;;;9.75;8.50;;;;;-142.59;100.00;56100.38;4895261;28;49949;-64
2022/01/07 02:58:02;;;;;;;;;10.25;9.50;;;;;-142.59;100.00;56100.38;4917921;28;49618;-64
2022/01/07 03:00:28;;;;;;;;;9.75;9.00;;;;;-142.59;100.00;56100.38;4918756;28;49670;-66
2022/01/07 03:02:54;;;;;;;;;11.25;9.75;;;;;-142.59;100.00;56100.38;4922413;28;49813;-64
2022/01/07 03:05:20;;;;;;;;;6.50;6.50;;;;;-142.59;100.00;56100.38;4918702;28;49590;-64
2022/01/07 03:07:47;;;;;;;;;9.25;9.25;;;;;-142.59;100.00;56100.38;4918261;28;50077;-65
2022/01/07 03:10:14;;;;;;;;;7.00;7.00;;;;;-142.59;100.00;56100.38;4919921;28;49884;-64
2022/01/07 03:12:42;;;;;;;;;6.50;6.50;;;;;-142.59;100.00;56100.38;4919687;28;49942;-65
2022/01/07 03:15:08;;;;;;;;;11.50;9.75;;;;;-142.59;100.00;56100.38;4916781;28;49953;-66
2022/01/07 03:17:34;;;;;;;;;9.00;7.75;;;;;-142.59;100.00;56100.38;4918941;28;49805;-66
2022/01/07 03:20:00;;;;;;;;;6.00;6.00;;;;;-142.59;100.00;56100.38;4914050;28;49681;-67
2022/01/07 03:22:25;;;;;;;;;10.50;9.25;;;;;-142.59;100.00;56100.38;4917339;28;50351;-65
2022/01/07 03:24:50;;;;;;;;;6.25;6.25;;;;;-142.59;100.00;56100.38;4919114;28;49653;-69
2022/01/07 03:27:16;;;;;;;;;5.75;5.75;;;;;-142.59;100.00;56100.38;4919052;28;50017;-67
2022/01/07 03:29:41;;;;;;;;;6.50;6.50;;;;;-142.59;100.00;56100.38;4900101;28;49790;-69
2022/01/07 03:32:07;;;;;;;;;6.00;6.00;;;;;-142.59;100.00;56100.38;4899127;28;50574;-67
2022/01/07 03:34:32;;;;;;;;;6.25;6.25;;;;;-142.59;100.00;56100.38;4916207;28;49808;-68
2022/01/07 03:36:58;;;;;;;;;6.50;6.50;;;;;-142.59;100.00;56100.38;4917363;28;49710;-68
2022/01/07 03:39:23;;;;;;;;;6.75;5.75;;;;;-142.59;100.00;56100.38;4919293;28;49603;-66
2022/01/07 03:41:48;;;;;;;;;7.50;6.00;;;;;-142.59;100.00;56100.38;4914448;28;49726;-67
2022/01/07 03:44:14;;;;;;;;;7.75;5.75;;;;;-142.59;100.00;56100.38;4919087;28;49722;-66
2022/01/07 03:46:39;;;;;;;;;7.00;3.00;;;;;-142.59;100.00;56100.38;4919914;28;49503;-68
2022/01/07 03:49:05;;;;;;;;;10.25;7.00;;;;;-142.59;100.00;56100.38;4913490;28;49791;-66
2022/01/07 03:51:30;;;;;;;;;14.75;10.75;;;;;-142.59;100.00;56100.38;4915757;28;51021;-68
2022/01/07 03:53:55;;;;;;;;;10.75;7.00;;;;;-142.59;100.00;56100.38;4915105;28;49835;-67
2022/01/07 03:56:21;;;;;;;;;4.50;4.50;;;;;-142.59;100.00;56100.38;4918924;28;49745;-70
2022/01/07 03:58:47;;;;;;;;;6.00;6.00;;;;;-142.59;100.00;56100.38;4918981;28;49778;-67
2022/01/07 04:01:13;;;;;;;;;7.00;6.00;;;;;-142.59;100.00;56100.38;4911576;28;50911;-66
2022/01/07 04:03:39;;;;;;;;;7.25;7.25;;;;;-142.59;100.00;56100.38;4899728;28;49812;-70
2022/01/07 04:06:04;;;;;;;;;6.00;6.00;;;;;-142.59;100.00;56100.38;4914161;28;49882;-67
2022/01/07 04:08:30;;;;;;;;;6.50;6.00;;;;;-142.59;100.00;56100.38;4911814;28;49666;-68
2022/01/07 04:10:55;;;;;;;;;6.75;6.75;;;;;-142.59;100.00;56100.38;4923375;28;50653;-70
2022/01/07 04:13:21;;;;;;;;;6.25;5.50;;;;;-142.59;100.00;56100.38;4912701;28;49733;-71
2022/01/07 04:15:46;;;;;;;;;5.75;5.75;;;;;-142.59;100.00;56100.38;4917455;28;49694;-68
2022/01/07 04:18:12;;;;;;;;;6.50;6.50;;;;;-142.59;100.00;56100.38;4918475;28;49800;-67
2022/01/07 04:20:37;;;;;;;;;6.50;6.50;;;;;-142.59;100.00;56100.38;4905878;28;51521;-69
2022/01/07 04:23:04;;;;;;;;;7.50;6.25;;;;;-142.59;100.00;56100.38;4924014;28;49589;-67
2022/01/07 04:25:30;;;;;;;;;5.25;5.25;;;;;-142.59;100.00;56100.38;4929985;28;49484;-68
2022/01/07 04:27:59;;;;;;;;;6.50;6.00;;;;;-142.59;100.00;56100.38;4930287;28;49589;-71
2022/01/07 04:30:26;;;;;;;;;3.00;3.00;;;;;-142.59;100.00;56100.38;4930116;28;50162;-69
2022/01/07 04:32:53;;;;;;;;;6.75;4.50;;;;;-142.59;100.00;56100.38;4916755;28;49963;-67
2022/01/07 04:35:19;;;;;;;;;9.75;6.50;;;;;-142.59;100.00;56100.38;4911083;28;49897;-68
2022/01/07 04:37:45;;;;;;;;;8.75;6.00;;;;;-142.59;100.00;56100.38;4920312;28;49813;-66
2022/01/07 04:40:13;;;;;;;;;6.00;5.75;;;;;-142.59;100.00;56100.38;4902469;28;51886;-70
2022/01/07 04:42:39;;;;;;;;;9.50;5.50;;;;;-142.59;100.00;56100.38;4910938;28;49759;-68
2022/01/07 04:45:08;;;;;;;;;5.25;5.25;;;;;-142.59;100.00;56100.38;4917629;28;49687;-68
2022/01/07 04:47:36;;;;;;;;;4.50;4.50;;;;;-142.59;100.00;56100.38;4922189;28;50196;-67
2022/01/07 04:50:04;;;;;;;;;8.25;6.00;;;;;-142.59;100.00;56100.38;4918494;28;50648;-69
2022/01/07 04:52:29;;;;;;;;;5.75;5.75;;;;;-142.59;100.00;56100.38;4912174;28;49787;-68
2022/01/07 04:54:54;;;;;;;;;5.50;5.00;;;;;-142.59;100.00;56100.38;4917863;28;49821;-66
2022/01/07 04:57:20;;;;;;;;;3.50;3.50;;;;;-142.59;100.00;56100.38;4902812;28;49983;-66
2022/01/07 04:59:45;;;;;;;;;6.75;5.00;;;;;-142.59;100.00;56100.38;4917268;28;49851;-67
2022/01/07 05:02:10;;;;;;;;;7.50;6.00;;;;;-142.59;100.00;56100.38;4915301;28;49736;-68
2022/01/07 05:04:36;;;;;;;;;6.25;3.50;;;;;-142.59;100.00;56100.38;4914856;28;49740;-67
2022/01/07 05:07:01;;;;;;;;;7.00;6.00;;;;;-142.59;100.00;56100.38;4915729;28;49595;-66
2022/01/07 05:09:26;;;;;;;;;12.50;4.00;;;;;-142.59;100.00;56100.38;4915765;28;50311;-67
2022/01/07 05:11:53;;;;;;;;;5.50;3.50;;;;;-142.59;100.00;56100.38;4916067;28;49847;-66
2022/01/07 05:14:19;;;;;;;;;5.75;5.75;;;;;-142.59;100.00;56100.38;4915231;28;49810;-67
2022/01/07 05:16:45;;;;;;;;;6.00;6.00;;;;;-142.59;100.00;56100.38;4917583;28;49660;-67
2022/01/07 05:19:10;;;;;;;;;5.25;5.25;;;;;-142.59;100.00;56100.38;4920776;28;50908;-66
2022/01/07 05:21:37;;;;;;;;;3.50;3.00;;;;;-142.59;100.00;56100.38;4918508;28;49780;-67
2022/01/07 05:24:03;;;;;;;;;6.00;6.00;;;;;-142.59;100.00;56100.38;4918583;28;49972;-65
2022/01/07 05:26:28;;;;;;;;;6.00;3.00;;;;;-142.59;100.00;56100.38;4918849;28;49895;-66
2022/01/07 05:28:54;;;;;;;;;5.25;3.00;;;;;-142.59;100.00;56100.38;4899224;28;51364;-65
2022/01/07 05:31:22;;;;;;;;;7.00;6.00;;;;;-142.59;100.00;56100.38;4902460;28;49757;-65
2022/01/07 05:33:49;;;;;;;;;11.25;5.25;;;;;-142.59;100.00;56100.38;4915365;28;49556;-66
2022/01/07 05:36:14;;;;;;;;;2.50;1.00;;;;;-142.59;100.00;56100.38;4921952;28;49709;-65
2022/01/07 05:38:40;;;;;;;;;3.50;3.50;;;;;-142.59;100.00;56100.38;4919144;28;50406;-65
2022/01/07 05:41:05;;;;;;;;;6.00;4.50;;;;;-142.59;100.00;56100.38;4917958;28;49853;-66
2022/01/07 05:43:31;;;;;;;;;2.00;2.00;;;;;-142.59;100.00;56100.38;4918222;28;49654;-68
2022/01/07 05:45:57;;;;;;;;;3.00;3.00;;;;;-142.59;100.00;56100.38;4918235;28;50019;-65
2022/01/07 05:48:23;;;;;;;;;9.00;6.00;;;;;-142.59;100.00;56100.38;4920946;28;50976;-67
2022/01/07 05:50:49;;;;;;;;;6.00;5.25;;;;;-142.59;100.00;56100.38;4921347;28;49927;-66
2022/01/07 05:53:14;;;;;;;;;5.50;5.50;;;;;-142.59;100.00;56100.38;4913857;28;49692;-68
2022/01/07 05:55:40;;;;;;;;;6.00;5.00;;;;;-142.59;100.00;56100.38;4920225;28;49849;-69
2022/01/07 05:58:05;;;;;;;;;6.00;5.00;;;;;-142.59;100.00;56100.38;4903197;28;51775;-66
2022/01/07 06:00:31;;;;;;;;;7.00;3.00;;;;;-142.59;100.00;56100.38;4919512;28;49840;-66
2022/01/07 06:02:56;;;;;;;;;3.50;3.50;;;;;-142.59;100.00;56100.38;4918621;28;49817;-65
2022/01/07 06:05:22;;;;;;;;;6.00;5.00;;;;;-142.59;100.00;56100.38;4901990;28;49740;-68
2022/01/07 06:07:47;;;;;;;;;2.50;2.50;;;;;-142.59;100.00;56100.38;4915494;28;50312;-67
2022/01/07 06:10:12;;;;;;;;;6.00;6.00;;;;;-142.59;100.00;56100.38;4914762;28;50200;-65
2022/01/07 06:12:39;;;;;;;;;2.00;2.00;;;;;-142.59;100.00;56100.38;4919509;28;50195;-67
2022/01/07 06:15:05;;;;;;;;;7.00;3.50;;;;;-142.59;100.00;56100.38;4916798;28;49803;-66
2022/01/07 06:17:30;;;;;;;;;4.25;4.25;;;;;-142.59;100.00;56100.38;4918687;28;50894;-67
2022/01/07 06:19:56;;;;;;;;;2.75;2.25;;;;;-142.59;100.00;56100.38;4920229;28;49976;-66
2022/01/07 06:22:21;;;;;;;;;7.25;6.00;;;;;-142.59;100.00;56100.38;4920491;28;49797;-68
2022/01/07 06:24:46;;;;;;;;;6.25;5.00;;;;;-142.59;100.00;56100.38;4923302;28;49898;-67
2022/01/07 06:27:12;;;;;;;;;5.75;3.00;;;;;-142.59;100.00;56100.38;4907948;28;51146;-66
2022/01/07 06:29:39;;;;;;;;;5.25;2.00;;;;;-142.59;100.00;56100.38;4921055;28;49820;-66
2022/01/07 06:32:05;;;;;;;;;6.50;5.50;;;;;-142.59;100.00;56100.38;4917451;28;50113;-64
2022/01/07 06:34:31;;;;;;;;;5.75;5.75;;;;;-142.59;100.00;56100.38;4919005;28;49912;-67
2022/01/07 06:36:58;;;;;;;;;8.00;5.00;;;;;-142.59;100.00;56100.38;4918227;28;50304;-63
2022/01/07 06:39:24;;;;;;;;;6.00;5.50;;;;;-142.59;100.00;56100.38;4897647;28;49755;-65
2022/01/07 06:41:51;;;;;;;;;5.50;5.50;;;;;-142.59;100.00;56100.38;4914410;28;50030;-62
2022/01/07 06:44:17;;;;;;;;;5.50;5.50;;;;;-142.59;100.00;56100.38;4914515;28;49922;-59
2022/01/07 06:46:42;;;;;;;;;5.75;5.75;;;;;-142.59;100.00;56100.38;4914126;28;49775;-64
2022/01/07 06:49:08;;;;;;;;;9.00;7.00;;;;;-142.59;100.00;56100.38;4914335;28;49732;-62
2022/01/07 06:51:33;;;;;;;;;5.00;4.50;;;;;-142.59;100.00;56100.38;4914290;28;49698;-61
2022/01/07 06:53:59;;;;;;;;;5.75;4.50;;;;;-142.59;100.00;56100.38;4914452;28;49824;-64
2022/01/07 06:56:25;;;;;;;;;6.50;6.25;;;;;-142.59;100.00;56100.38;4913703;28;50886;-62
2022/01/07 06:58:50;;;;;;;;;3.00;3.00;;;;;-142.59;100.00;56100.38;4913966;28;49633;-61
2022/01/07 07:01:16;;;;;;;;;3.00;3.00;;;;;-142.59;100.00;56100.38;4914153;28;50344;-63
2022/01/07 07:03:42;;;;;;;;;9.00;6.00;;;;;-142.59;100.00;56100.38;4914378;28;50016;-65
2022/01/07 07:06:08;;;;;;;;;4.50;4.00;;;;;-142.59;100.00;56100.38;4913922;28;50919;-61
2022/01/07 07:08:33;;;;;;;;;3.50;3.50;;;;;-142.59;100.00;56100.38;4914007;28;49659;-65
2022/01/07 07:10:59;;;;;;;;;4.50;4.50;;;;;-142.59;100.00;56100.38;4913865;28;49698;-68
2022/01/07 07:13:24;;;;;;;;;2.75;2.75;;;;;-142.59;100.00;56100.38;4914048;28;49789;-64
2022/01/07 07:15:49;;;;;;;;;4.00;4.00;;;;;-142.59;100.00;56100.38;4913850;28;49930;-64
2022/01/07 07:18:17;;;;;;;;;10.25;5.75;;;;;-142.59;100.00;56100.38;4896496;28;49747;-63
2022/01/07 07:20:43;;;;;;;;;5.50;3.25;;;;;-142.59;100.00;56100.38;4908083;28;49858;-68
2022/01/07 07:23:08;;;;;;;;;6.75;5.00;;;;;-142.59;100.00;56100.38;4913978;28;49983;-70
2022/01/07 07:25:33;;;;;;;;;5.00;5.00;;;;;-142.59;100.00;56100.38;4913455;28;49811;-65
2022/01/07 07:27:59;;;;;;;;;7.25;6.25;;;;;-142.59;100.00;56100.38;4913455;28;49765;-63
2022/01/07 07:30:32;;;;;;;;;6.00;6.00;;;;;-142.59;100.00;56100.38;4913808;28;49653;-64
2022/01/07 07:32:59;;;;;;;;;3.00;3.00;;;;;-142.59;100.00;56100.38;4913800;28;49804;-64
2022/01/07 07:38:08;;;;;;;;;6.25;6.00;;;;;-142.59;100.00;56100.38;4913488;28;49920;-64
2022/01/07 07:40:34;;;;;;;;;5.00;5.00;;;;;-142.59;100.00;56100.38;4913320;28;49870;-60
2022/01/07 07:42:59;;;;;;;;;6.50;6.00;;;;;-142.59;100.00;56100.38;4913514;28;49855;-64
2022/01/07 07:45:24;;;;;;;;;8.25;6.00;;;;;-142.59;100.00;56100.38;4913589;28;50522;-64
2022/01/07 07:47:50;;;;;;;;;6.25;6.00;;;;;-142.59;100.00;56100.38;4913487;28;49602;-64
2022/01/07 07:50:15;;;;;;;;;5.50;5.50;;;;;-142.59;100.00;56100.38;4913453;28;49676;-64
2022/01/07 07:52:41;;;;;;;;;6.00;6.00;;;;;-142.59;100.00;56100.38;4913659;28;49847;-66
2022/01/07 07:55:07;;;;;;;;;5.25;3.00;;;;;-142.59;100.00;56100.38;4913100;28;50696;-65
2022/01/07 07:57:32;;;;;;;;;6.50;6.50;;;;;-142.59;100.00;56100.38;4913295;28;49694;-61
2022/01/07 07:59:57;;;;;;;;;6.25;6.25;;;;;-142.59;100.00;56100.38;4890151;29;50493;-60
2022/01/07 08:02:23;;;;;;;;;3.75;3.50;;;;;-142.59;100.00;56100.38;4892838;28;49881;-65
2022/01/07 08:04:48;;;;;;;;;6.50;4.00;;;;;-142.59;100.00;56100.38;4895949;28;50386;-60
2022/01/07 08:07:16;;;;;;;;;3.00;3.00;;;;;-142.59;100.00;56100.38;4900294;28;49847;-61
2022/01/07 08:09:43;;;;;;;;;3.25;2.00;;;;;-142.59;100.00;56100.38;4894530;28;49779;-71
2022/01/07 08:12:27;;;;;;;;;1.00;1.00;;;;;-142.59;100.00;56100.38;4893402;28;49608;-66
2022/01/07 08:17:36;;;;;;;;;7.00;3.50;;;;;-142.59;100.00;56100.38;4889196;28;49958;-63
2022/01/07 08:20:02;;;;;;;;;3.00;2.50;;;;;-142.59;100.00;56100.38;4894616;28;50585;-64
2022/01/07 08:22:28;;;;;;;;;6.75;5.25;;;;;-142.59;100.00;56100.38;4894526;28;49566;-64
2022/01/07 08:24:53;;;;;;;;;2.00;2.00;;;;;-142.59;100.00;56100.38;4894184;28;50237;-64
2022/01/07 08:27:22;;;;;;;;;1.75;1.00;;;;;-142.59;100.00;56100.38;4894252;28;49975;-64
2022/01/07 08:29:47;;;;;;;;;5.00;3.00;;;;;-142.59;100.00;56100.38;4894442;28;49777;-65
2022/01/07 08:34:58;;;;;;;;;3.00;1.25;;;;;-142.59;100.00;56100.38;4890246;28;49916;-64
2022/01/07 08:37:28;;;;;;;;;7.75;4.75;;;;;-142.59;100.00;56100.38;4876540;28;49809;-64
2022/01/07 08:39:55;;;;;;;;;2.25;1.00;;;;;-142.59;100.00;56100.38;4894399;28;49953;-63
2022/01/07 08:42:25;;;;;;;;;6.75;2.50;;;;;-142.59;100.00;56100.38;4894241;28;49942;-64
2022/01/07 08:44:52;;;;;;;;;3.50;2.00;;;;;-142.59;100.00;56100.38;4893988;28;49987;-64
2022/01/07 08:47:24;;;;;;;;;5.75;2.50;;;;;-142.59;100.00;56100.38;4894013;28;49091;-64
2022/01/07 08:49:52;;;;;;;;;4.50;1.50;;;;;-142.59;100.00;56100.38;4893864;28;49884;-64
2022/01/07 08:52:19;;;;;;;;;1.00;1.00;;;;;-142.59;100.00;56100.38;4879401;28;50150;-71
2022/01/07 08:54:45;;;;;;;;;1.00;1.00;;;;;-142.59;100.00;56100.38;4897411;28;49854;-64
2022/01/07 08:57:10;;;;;;;;;1.00;1.00;;;;;-142.59;100.00;56100.38;4897286;28;49722;-65
2022/01/07 08:59:35;;;;;;;;;0.00;0.00;;;;;-142.59;100.00;56100.38;4906268;28;49927;-64
2022/01/07 09:02:01;;;;;;;;;2.25;1.25;;;;;-142.59;100.00;56100.38;4916313;28;49868;-65
2022/01/07 09:04:26;;;;;;;;;1.00;1.00;;;;;-142.59;100.00;56100.38;4915658;28;49765;-64
2022/01/07 09:06:51;;;;;;;;;0.25;0.25;;;;;-142.59;100.00;56100.38;4915826;28;49723;-65
2022/01/07 09:09:17;;;;;;;;;2.25;2.25;;;;;-142.59;100.00;56100.38;4915877;28;49864;-64
2022/01/07 09:11:42;;;;;;;;;1.75;1.25;;;;;-142.59;100.00;56100.38;4915765;28;49936;-64
2022/01/07 09:14:07;;;;;;;;;3.00;1.00;;;;;-142.59;100.00;56100.38;4915686;28;50771;-64
2022/01/07 09:16:33;;;;;;;;;3.00;0.00;;;;;-142.59;100.00;56100.38;4915966;28;49702;-66
2022/01/07 09:19:00;;;;;;;;;0.00;0.00;;;;;-142.59;100.00;56100.38;4915795;28;49753;-65
2022/01/07 09:21:26;;;;;;;;;3.00;2.00;;;;;-142.59;100.00;56100.38;4916244;28;49750;-64
2022/01/07 09:23:52;;;;;;;;;1.25;1.25;;;;;-142.59;100.00;56100.38;4898100;28;51985;-65
2022/01/07 09:26:18;;;;;;;;;4.50;0.75;;;;;-142.59;100.00;56100.38;4915260;28;49831;-64
2022/01/07 09:28:43;;;;;;;;;2.00;2.00;;;;;-142.59;100.00;56100.38;4915711;28;49803;-64
2022/01/07 09:31:11;;;;;;;;;0.75;0.75;;;;;-142.59;100.00;56100.38;4915529;28;49762;-65
2022/01/07 09:33:36;;;;;;;;;1.50;1.50;;;;;-142.59;100.00;56100.38;4914922;28;49729;-65
2022/01/07 09:36:02;;;;;;;;;1.00;1.00;;;;;-142.59;100.00;56100.38;4915438;28;50089;-66
2022/01/07 09:38:27;;;;;;;;;0.00;0.00;;;;;-142.59;100.00;56100.38;4915978;28;49756;-65
2022/01/07 09:40:54;;;;;;;;;3.50;1.00;;;;;-142.59;100.00;56100.38;4915265;28;49991;-66
2022/01/07 09:43:19;;;;;;;;;2.00;2.00;;;;;-142.59;100.00;56100.38;4914909;28;50545;-65
2022/01/07 09:45:45;;;;;;;;;1.00;1.00;;;;;-142.59;100.00;56100.38;4920347;28;49606;-64
2022/01/07 09:48:10;;;;;;;;;1.75;1.75;;;;;-142.59;100.00;56100.38;4916590;28;49780;-64
2022/01/07 09:50:48;;;;;;;;;3.00;1.00;;;;;-142.59;100.00;56100.38;4921009;28;49927;-66
2022/01/07 09:53:15;;;;;;;;;1.75;0.75;;;;;-142.59;100.00;56100.38;4915186;28;50046;-65
2022/01/07 09:55:43;;;;;;;;;0.00;0.00;;;;;-142.59;100.00;56100.38;4915359;28;49849;-64
2022/01/07 09:58:09;;;;;;;;;2.75;2.75;;;;;-142.59;100.00;56100.38;4915249;28;49670;-64
2022/01/07 10:00:39;;;;;;;;;2.00;1.00;;;;;-142.59;100.00;56100.38;4915534;28;49686;-64
2022/01/07 10:03:13;;;;;;;;;1.00;1.00;;;;;-142.59;100.00;56100.38;4914400;28;49877;-64
2022/01/07 10:05:41;;;;;;;;;2.00;2.00;;;;;-142.59;100.00;56100.38;4915313;28;49830;-65
2022/01/07 10:08:22;;;;;;;;;1.25;1.25;;;;;-142.59;100.00;56100.38;4915163;28;49762;-65
2022/01/07 10:11:20;;;;;;;;;0.50;0.50;;;;;-142.59;100.00;56100.38;4914490;28;49788;-65
2022/01/07 10:14:10;;;;;;;;;3.75;3.00;;;;;-142.59;100.00;56100.38;4892158;28;50074;-65
2022/01/07 10:16:53;;;;;;;;;1.25;1.00;;;;;-142.59;100.00;56100.38;4914844;28;50059;-65
2022/01/07 10:19:38;;;;;;;;;1.50;1.50;;;;;-142.59;100.00;56100.38;4914836;28;50102;-65
2022/01/07 10:22:11;;;;;;;;;0.50;0.50;;;;;-142.59;100.00;56100.38;4914861;28;49925;-65
2022/01/07 10:24:54;;;;;;;;;1.25;1.25;;;;;-142.59;100.00;56100.38;4897133;28;51673;-64
2022/01/07 10:27:22;;;;;;;;;1.75;1.75;;;;;-142.59;100.00;56100.38;4914490;28;49830;-65
2022/01/07 10:29:48;;;;;;;;;4.50;2.50;;;;;-142.59;100.00;56100.38;4914815;28;49816;-65
2022/01/07 10:32:31;;;;;;;;;1.75;1.75;;;;;-142.59;100.00;56100.38;4916807;28;49562;-65
2022/01/07 10:35:15;;;;;;;;;0.00;0.00;;;;;-142.59;100.00;56100.38;4910425;28;50059;-65
2022/01/07 10:37:57;;;;;;;;;2.75;1.00;;;;;-142.59;100.00;56100.38;4897173;28;49927;-65
2022/01/07 10:40:23;;;;;;;;;0.50;0.00;;;;;-142.59;100.00;56100.38;4914621;28;49785;-65
2022/01/07 10:42:51;;;;;;;;;1.00;1.00;;;;;-142.59;100.00;56100.38;4914669;28;49736;-65
2022/01/07 10:45:18;;;;;;;;;0.00;0.00;;;;;-142.59;100.00;56100.38;4914178;28;51048;-64
2022/01/07 10:47:50;;;;;;;;;0.25;0.00;;;;;-142.59;100.00;56100.38;4914008;28;49836;-67
2022/01/07 10:50:23;;;;;;;;;0.00;0.00;;;;;-142.59;100.00;56100.38;4914422;28;49620;-65
2022/01/07 10:52:49;;;;;;;;;1.00;0.00;;;;;-142.59;100.00;56100.38;4912529;28;49924;-65
2022/01/07 10:55:19;;;;;;;;;0.00;0.00;;;;;-142.59;100.00;56100.38;4914174;28;49878;-65
2022/01/07 10:57:48;;;;;;;;;0.00;0.00;;;;;-142.59;100.00;56100.38;4914033;28;50067;-64
2022/01/07 11:00:16;;;;;;;;;0.75;0.50;;;;;-142.59;100.00;56100.38;4913918;28;49734;-65
2022/01/07 11:02:42;;;;;;;;;0.25;0.25;;;;;-142.59;100.00;56100.38;4914352;28;49997;-64
2022/01/07 11:05:09;;;;;;;;;1.25;1.25;;;;;-142.59;100.00;56100.38;4913979;28;50962;-64
2022/01/07 11:07:38;;;;;;;;;1.75;1.00;;;;;-142.59;100.00;56100.38;4914068;28;49768;-65
2022/01/07 11:10:05;;;;;;;;;0.25;0.25;;;;;-142.59;100.00;56100.38;4908077;28;49798;-65
2022/01/07 11:12:31;;;;;;;;;0.50;0.50;;;;;-142.59;100.00;56100.38;4897014;28;49696;-65
2022/01/07 11:15:00;;;;;;;;;0.00;0.00;;;;;-142.59;100.00;56100.38;4895939;28;51645;-65